Rechercher aéroport 
image banner adimage banner adimage banner ad
image banner ad

6CL2 - White Pine

Situé à Eagleville, United States

ICAO - 6CL2, IATA -

Données fournies par Airmate  

Information générale

Coordonnées: N41°19'50" W120°5'51"
Élévation : 4550 feet MSL.
Variation magnétique : 17° East
Voir autres Aéroports à California

Données opérationnelles

Special qualification required
Heure actuelle UTC:
Heure actuelle locale:
Météo à : KAAT - Alturas Muni ( 43 km )
METAR: KAAT 251555Z AUTO 00000KT 6SM HZ CLR 18/03 A3015 RMK AO2 SLP162 T01830028
Voir NOTAMs / SUP AIP / TFR affectant cet aéroport [VIEW]
Fréquences de communication: [VIEW]

Pistes:

Coordonnées de l'aéroport

Adresse: Eagleville United States

Vue satellite de 6CL2